Time;durP1;ratioP1;P1;durP2;ratioP2;P2;SDS_P1;SDS_P2;PMS_P1;PMS_P2;Temp;Humidity;BMP_temperature;BMP_pressure;BME280_temperature;BME280_humidity;BME280_pressure;Samples;Min_cycle;Max_cycle;Signal;HPM_P1;HPM_P2
2021/06/11 00:10:04;;;;;;;22.45;19.52;;;;;;;17.36;78.81;100681.63;21070069;28;20044;-69
2021/06/11 00:20:07;;;;;;;21.10;18.00;;;;;;;17.23;78.92;100672.44;21071750;28;20044;-69
2021/06/11 00:30:09;;;;;;;21.55;18.92;;;;;;;17.07;78.97;100678.34;21069565;28;20044;-69
2021/06/11 00:40:12;;;;;;;20.63;18.42;;;;;;;16.84;79.32;100680.97;21068700;28;20040;-70
2021/06/11 00:50:18;;;;;;;21.05;17.98;;;;;;;16.55;79.84;100692.59;21067784;28;20044;-69
2021/06/11 01:00:20;;;;;;;23.20;19.05;;;;;;;16.43;80.75;100696.50;21066716;28;20074;-69
2021/06/11 01:10:22;;;;;;;24.77;19.83;;;;;;;16.24;81.30;100690.13;21066330;28;20052;-69
2021/06/11 01:20:24;;;;;;;19.92;17.42;;;;;;;16.28;80.45;100689.13;21067380;28;20044;-70
2021/06/11 01:30:26;;;;;;;20.38;16.95;;;;;;;16.15;79.73;100693.97;21065069;28;20040;-69
2021/06/11 01:40:30;;;;;;;20.33;17.23;;;;;;;15.95;80.56;100699.03;21065889;28;20105;-69
2021/06/11 01:50:34;;;;;;;20.15;17.35;;;;;;;16.02;80.14;100697.94;21064863;28;20052;-69
2021/06/11 02:00:37;;;;;;;21.67;17.77;;;;;;;15.99;79.12;100704.16;21056211;28;20040;-70
2021/06/11 02:10:39;;;;;;;22.30;18.25;;;;;;;15.74;79.64;100705.91;21064969;28;20489;-70
2021/06/11 02:20:42;;;;;;;19.40;17.15;;;;;;;15.69;80.55;100710.47;21076173;28;20052;-70
2021/06/11 02:30:44;;;;;;;25.40;17.73;;;;;;;15.75;80.48;100707.63;21077542;28;20455;-69
2021/06/11 02:40:47;;;;;;;22.30;17.08;;;;;;;15.67;79.64;100699.97;21076745;28;20051;-69
2021/06/11 02:51:12;;;;;;;19.25;16.38;;;;;;;15.58;78.98;100708.13;21076894;28;20040;-71
2021/06/11 03:01:15;;;;;;;;;;;;;;;15.30;80.71;100705.47;21076125;28;20390;-70
2021/06/11 03:11:29;;;;;;;17.67;15.77;;;;;;;15.04;80.71;100701.84;21073435;28;19920;-69
2021/06/11 03:21:34;;;;;;;17.67;15.70;;;;;;;14.96;81.13;100706.47;21074825;28;20048;-70
2021/06/11 03:31:48;;;;;;;19.40;16.25;;;;;;;14.99;80.05;100705.50;21073342;28;20105;-70
2021/06/11 03:41:52;;;;;;;16.88;15.07;;;;;;;15.01;80.82;100704.56;21074558;28;20101;-69
2021/06/11 03:51:55;;;;;;;17.35;15.27;;;;;;;15.23;79.96;100698.66;21073044;28;20109;-70
2021/06/11 04:01:57;;;;;;;19.40;15.55;;;;;;;15.22;79.35;100704.84;21071161;28;20044;-69
2021/06/11 04:12:06;;;;;;;21.23;15.60;;;;;;;15.46;78.39;100711.16;21069459;28;20040;-70
2021/06/11 04:22:13;;;;;;;18.10;15.65;;;;;;;15.53;77.98;100718.84;21071194;28;20044;-69
2021/06/11 04:32:17;;;;;;;17.50;13.40;;;;;;;16.62;74.59;100712.56;21068396;28;20055;-69
2021/06/11 04:42:19;;;;;;;15.33;12.37;;;;;;;18.09;67.81;100718.41;21068574;28;20578;-70
2021/06/11 04:52:20;;;;;;;14.57;12.57;;;;;;;18.01;69.04;100728.44;21068649;28;20052;-70
2021/06/11 05:02:22;;;;;;;14.45;12.18;;;;;;;17.45;72.20;100734.22;21067463;28;20101;-70
2021/06/11 05:12:23;;;;;;;14.23;11.85;;;;;;;17.64;67.62;100729.06;21068358;28;20040;-70
2021/06/11 05:22:26;;;;;;;16.00;11.30;;;;;;;17.68;67.00;100734.19;21067352;28;20138;-70
2021/06/11 05:32:27;;;;;;;16.10;11.40;;;;;;;18.09;67.63;100723.72;21066393;28;20107;-69
2021/06/11 05:42:29;;;;;;;19.50;14.10;;;;;;;18.40;69.44;100730.38;21067514;28;20070;-69
2021/06/11 05:52:31;;;;;;;14.35;12.57;;;;;;;18.61;67.54;100742.69;21073690;28;20089;-70
2021/06/11 06:02:33;;;;;;;15.57;11.80;;;;;;;18.95;66.87;100749.19;21081706;28;20040;-70
2021/06/11 06:12:35;;;;;;;16.20;12.95;;;;;;;19.01;65.01;100735.66;21080845;28;20565;-70
2021/06/11 06:22:37;;;;;;;13.55;11.65;;;;;;;19.14;64.86;100747.44;21079193;28;20044;-70
2021/06/11 06:32:39;;;;;;;13.35;11.20;;;;;;;19.57;65.51;100747.25;21076314;28;20101;-70
2021/06/11 06:42:42;;;;;;;15.35;11.60;;;;;;;20.03;63.78;100737.94;21077033;28;20455;-70
2021/06/11 06:52:44;;;;;;;13.95;11.35;;;;;;;20.34;62.56;100741.72;21077308;28;20040;-70
2021/06/11 07:02:45;;;;;;;16.55;11.25;;;;;;;20.45;61.51;100740.22;21061762;28;20089;-70
2021/06/11 07:12:47;;;;;;;15.05;12.02;;;;;;;20.67;60.74;100736.50;21030296;28;20485;-71
2021/06/11 07:22:49;;;;;;;15.40;12.80;;;;;;;21.24;59.53;100734.31;21052875;28;20044;-71
2021/06/11 07:32:51;;;;;;;11.38;10.13;;;;;;;21.50;56.61;100730.22;21072791;28;20047;-71
2021/06/11 07:42:53;;;;;;;12.15;9.90;;;;;;;21.78;57.05;100735.72;21074027;28;20448;-71
2021/06/11 07:52:55;;;;;;;15.50;10.57;;;;;;;22.28;53.79;100733.78;21073470;28;20044;-71
2021/06/11 08:02:58;;;;;;;13.30;10.52;;;;;;;22.49;58.17;100726.31;21071683;28;20045;-71
2021/06/11 08:13:00;;;;;;;16.95;11.10;;;;;;;22.65;54.20;100726.22;21071526;28;20048;-70
2021/06/11 08:23:01;;;;;;;12.05;9.57;;;;;;;22.91;51.99;100722.00;21063337;28;20121;-70
2021/06/11 08:33:04;;;;;;;13.75;9.75;;;;;;;23.15;55.21;100717.81;20985387;28;20040;-71
2021/06/11 08:43:07;;;;;;;13.38;9.98;;;;;;;23.55;53.26;100725.94;20981761;28;20048;-71
2021/06/11 08:53:09;;;;;;;15.18;9.85;;;;;;;23.69;53.20;100722.41;20994996;28;20423;-71
2021/06/11 09:03:26;;;;;;;9.07;7.50;;;;;;;24.09;47.63;100720.59;21068171;28;20485;-70
2021/06/11 09:13:29;;;;;;;9.02;7.90;;;;;;;24.59;46.43;100713.69;21068666;28;20520;-71
2021/06/11 09:23:31;;;;;;;12.07;7.33;;;;;;;24.87;46.53;100719.78;21071192;28;20390;-71
2021/06/11 09:33:41;;;;;;;9.45;7.20;;;;;;;24.96;46.19;100720.00;21084201;28;20093;-71
2021/06/11 09:43:55;;;;;;;12.35;8.85;;;;;;;25.32;43.08;100711.16;21083753;28;20044;-71
2021/06/11 09:54:00;;;;;;;;;;;;;;;25.66;45.06;100700.66;21083316;28;20040;-72
2021/06/11 10:04:04;;;;;;;9.05;7.30;;;;;;;25.69;42.04;100692.41;21081434;28;19920;-71
2021/06/11 10:14:06;;;;;;;10.77;6.45;;;;;;;26.10;42.07;100691.13;21081022;28;20056;-72
2021/06/11 10:24:09;;;;;;;10.63;6.57;;;;;;;26.26;39.68;100686.31;21083769;28;20036;-72
2021/06/11 10:34:11;;;;;;;7.70;6.00;;;;;;;26.64;41.14;100685.19;21080305;28;20044;-72
2021/06/11 10:44:42;;;;;;;10.65;6.28;;;;;;;26.71;40.39;100670.28;21080320;28;20105;-72
2021/06/11 10:54:44;;;;;;;11.02;6.00;;;;;;;27.21;41.67;100660.03;21079203;28;20069;-72
2021/06/11 11:04:50;;;;;;;7.07;5.40;;;;;;;27.49;39.84;100655.09;21076884;28;20089;-72
2021/06/11 11:14:59;;;;;;;7.47;5.30;;;;;;;27.28;38.82;100650.50;21078197;28;20044;-72
2021/06/11 11:25:12;;;;;;;7.75;5.63;;;;;;;27.27;41.12;100650.63;21076556;28;20599;-72
2021/06/11 11:35:16;;;;;;;7.73;5.87;;;;;;;27.26;36.81;100644.41;21075608;28;20040;-72
2021/06/11 11:45:18;;;;;;;8.68;5.90;;;;;;;26.93;38.23;100633.66;21075001;28;20047;-72
2021/06/11 11:55:20;;;;;;;11.45;5.75;;;;;;;27.22;37.86;100625.97;21074676;28;20445;-72
2021/06/11 12:05:22;;;;;;;7.15;5.88;;;;;;;27.42;38.42;100616.25;21072671;28;20672;-72
2021/06/11 12:15:24;;;;;;;8.38;5.88;;;;;;;27.13;37.96;100616.81;21072754;28;20048;-72
2021/06/11 12:25:26;;;;;;;7.60;5.55;;;;;;;27.62;39.79;100604.66;21071952;28;20098;-72
2021/06/11 12:35:28;;;;;;;6.68;4.40;;;;;;;27.74;37.26;100594.72;21071077;28;20089;-72
2021/06/11 12:45:31;;;;;;;8.57;4.88;;;;;;;27.74;38.36;100590.22;21070769;28;20102;-74
2021/06/11 12:55:40;;;;;;;6.00;5.05;;;;;;;27.99;37.76;100577.38;21070093;28;20101;-74
2021/06/11 13:05:41;;;;;;;9.35;5.03;;;;;;;28.01;36.67;100580.78;21068995;28;20094;-74
2021/06/11 13:15:44;;;;;;;6.95;5.20;;;;;;;28.19;38.68;100557.66;21069459;28;20051;-74
2021/06/11 13:25:46;;;;;;;7.18;5.20;;;;;;;27.93;36.93;100564.41;21069799;28;20048;-74
2021/06/11 13:35:49;;;;;;;6.40;4.90;;;;;;;27.78;37.78;100570.13;21070363;28;20037;-74
2021/06/11 13:45:51;;;;;;;5.47;4.40;;;;;;;27.72;38.27;100565.28;21070198;28;20048;-74
2021/06/11 13:55:54;;;;;;;7.07;4.63;;;;;;;28.15;37.49;100561.59;21070110;28;20175;-73
2021/06/11 14:05:56;;;;;;;7.80;5.00;;;;;;;27.74;37.33;100562.44;21066020;28;20068;-73
2021/06/11 14:15:59;;;;;;;6.13;4.57;;;;;;;27.92;38.08;100560.03;21070768;28;20040;-72
2021/06/11 14:26:01;;;;;;;5.90;4.47;;;;;;;28.02;39.36;100555.56;21094158;28;20039;-73
2021/06/11 14:36:04;;;;;;;9.48;4.47;;;;;;;28.34;37.56;100533.94;21080366;28;20051;-73
2021/06/11 14:46:06;;;;;;;7.70;4.10;;;;;;;27.73;37.04;100541.91;21079960;28;20478;-73
2021/06/11 14:56:18;;;;;;;6.15;5.05;;;;;;;27.85;37.25;100530.97;21078530;28;20127;-73
2021/06/11 15:06:20;;;;;;;5.47;4.25;;;;;;;28.55;37.23;100515.00;21076878;28;20101;-73
2021/06/11 15:16:22;;;;;;;7.55;4.80;;;;;;;28.53;37.16;100512.47;21077519;28;20304;-73
2021/06/11 15:26:24;;;;;;;8.85;4.43;;;;;;;28.37;37.18;100507.59;21075137;28;20080;-73
2021/06/11 15:36:26;;;;;;;6.10;4.30;;;;;;;28.01;36.92;100508.09;21074398;28;20040;-73
2021/06/11 15:46:28;;;;;;;8.05;5.00;;;;;;;27.48;38.94;100505.47;21075628;28;20051;-73
2021/06/11 15:56:33;;;;;;;6.22;4.03;;;;;;;26.83;40.99;100535.00;21073025;28;20044;-73
2021/06/11 16:06:35;;;;;;;10.57;4.57;;;;;;;25.84;44.88;100543.72;21072540;28;20124;-72
2021/06/11 16:16:36;;;;;;;8.98;3.55;;;;;;;25.38;45.28;100535.63;21072968;28;20496;-73
2021/06/11 16:26:38;;;;;;;6.43;3.25;;;;;;;25.04;45.43;100540.78;21070974;28;20048;-72
2021/06/11 16:36:41;;;;;;;5.43;3.50;;;;;;;24.95;46.40;100535.25;21068331;28;20062;-72
2021/06/11 16:46:43;;;;;;;5.75;3.60;;;;;;;24.94;47.52;100518.31;21069410;28;20060;-72
2021/06/11 16:56:45;;;;;;;7.70;3.97;;;;;;;25.03;48.03;100519.47;21069749;28;20486;-73
2021/06/11 17:06:47;;;;;;;6.93;4.20;;;;;;;25.15;48.54;100510.53;21067397;28;20040;-72
2021/06/11 17:16:48;;;;;;;6.00;3.63;;;;;;;25.18;47.91;100504.97;21070042;28;20037;-73
2021/06/11 17:26:50;;;;;;;5.78;3.38;;;;;;;25.70;47.96;100516.22;21067479;28;20079;-72
2021/06/11 17:36:59;;;;;;;5.38;3.42;;;;;;;25.49;47.33;100516.06;21067595;28;20726;-73
2021/06/11 17:47:01;;;;;;;5.65;3.97;;;;;;;25.90;45.11;100512.03;21075856;28;20476;-73
2021/06/11 17:57:06;;;;;;;5.18;3.60;;;;;;;26.28;44.40;100511.69;21076100;28;20069;-72
2021/06/11 18:07:10;;;;;;;5.97;2.88;;;;;;;26.48;44.14;100507.44;21078340;28;20456;-72
2021/06/11 18:17:20;;;;;;;3.90;2.67;;;;;;;26.53;42.40;100515.97;21082161;28;20076;-72
2021/06/11 18:27:22;;;;;;;6.32;3.30;;;;;;;26.25;45.62;100519.97;21080665;28;20063;-72
2021/06/11 18:37:29;;;;;;;8.13;5.65;;;;;;;25.97;48.43;100515.97;21078869;28;20104;-72
2021/06/11 18:47:31;;;;;;;6.22;3.75;;;;;;;25.12;50.77;100521.50;21079744;28;20070;-72
2021/06/11 18:57:33;;;;;;;5.90;4.57;;;;;;;24.50;54.50;100524.25;21078489;28;20048;-72
2021/06/11 19:07:41;;;;;;;16.02;11.13;;;;;;;24.09;56.43;100524.47;21076409;28;20044;-72
2021/06/11 19:17:54;;;;;;;6.05;4.32;;;;;;;23.55;58.05;100530.81;21076288;28;20292;-72
2021/06/11 19:27:56;;;;;;;7.10;4.32;;;;;;;23.33;58.17;100525.19;21075491;28;20048;-72
2021/06/11 19:37:59;;;;;;;6.68;4.88;;;;;;;22.95;59.76;100549.97;21074286;28;20036;-72
2021/06/11 19:48:04;;;;;;;17.15;15.35;;;;;;;22.41;60.22;100558.66;21074186;28;20048;-72
2021/06/11 19:58:31;;;;;;;9.85;7.70;;;;;;;22.21;62.27;100564.38;21073769;28;20087;-72
2021/06/11 20:08:34;;;;;;;7.03;5.10;;;;;;;22.05;62.78;100575.09;21073282;28;20489;-72
2021/06/11 20:18:37;;;;;;;12.60;10.38;;;;;;;21.75;62.83;100576.00;21072543;28;20555;-72
2021/06/11 20:28:39;;;;;;;7.43;6.40;;;;;;;21.44;64.24;100579.59;21071720;28;20040;-72
2021/06/11 20:38:41;;;;;;;7.40;5.10;;;;;;;21.09;65.74;100583.38;21074107;28;20468;-73
2021/06/11 20:48:43;;;;;;;9.30;5.20;;;;;;;20.96;65.59;100588.53;21070642;28;20082;-73
2021/06/11 20:58:46;;;;;;;10.60;6.00;;;;;;;20.87;67.11;100602.34;21070148;28;20052;-72
2021/06/11 21:08:48;;;;;;;7.97;6.03;;;;;;;20.58;68.14;100611.94;21070018;28;20036;-72
2021/06/11 21:18:50;;;;;;;8.52;6.47;;;;;;;20.59;67.74;100608.31;21070799;28;20040;-72
2021/06/11 21:28:52;;;;;;;9.25;6.68;;;;;;;20.43;68.56;100622.41;21086775;28;20044;-72
2021/06/11 21:38:54;;;;;;;8.98;6.57;;;;;;;20.19;69.96;100616.59;21086286;28;20081;-75
2021/06/11 21:48:56;;;;;;;9.13;7.20;;;;;;;20.12;70.69;100630.25;21085032;28;20044;-75
2021/06/11 21:58:58;;;;;;;11.23;7.07;;;;;;;20.00;71.93;100634.41;21083818;28;20551;-75
2021/06/11 22:08:59;;;;;;;10.25;6.75;;;;;;;20.01;72.42;100632.63;21048094;28;20123;-74
2021/06/11 22:19:01;;;;;;;11.32;8.43;;;;;;;19.85;72.82;100640.53;21082285;28;20490;-75
2021/06/11 22:29:03;;;;;;;9.38;7.78;;;;;;;19.69;73.97;100646.59;21094952;28;20098;-75
2021/06/11 22:39:05;;;;;;;10.65;8.57;;;;;;;19.63;73.80;100644.22;21077018;28;20055;-75
2021/06/11 22:49:07;;;;;;;12.02;7.97;;;;;;;19.41;74.46;100643.53;21079225;28;20101;-75
2021/06/11 22:59:09;;;;;;;10.23;7.80;;;;;;;19.22;75.65;100636.47;21078905;28;20052;-75
2021/06/11 23:09:10;;;;;;;10.70;8.50;;;;;;;19.26;75.03;100628.31;21074872;28;20555;-76
2021/06/11 23:19:12;;;;;;;10.70;8.02;;;;;;;19.05;75.44;100641.69;21074429;28;20607;-76
2021/06/11 23:29:14;;;;;;;11.73;9.07;;;;;;;19.05;75.22;100640.84;21075086;28;20106;-75
2021/06/11 23:39:17;;;;;;;12.65;9.90;;;;;;;19.04;74.55;100633.81;21074465;28;20063;-75
2021/06/11 23:49:20;;;;;;;12.38;9.82;;;;;;;18.99;74.04;100636.69;21072841;28;20052;-75
2021/06/11 23:59:21;;;;;;;11.38;9.40;;;;;;;18.82;75.38;100625.97;21074788;28;20440;-76
